Enter the Airport ICAO Code

Search by Airport or City

Current Weather

LEMH | Menorca Airport (Mahón Airport)

Menorca, Balearic Islands, Spain

Last Update 7 Minutes Ago

Clear Sky

Temperature of 29 ºC

Light to Moderate Winds from SouthEast

Temperature

29 ºC

Dew Point Temperature

18 ºC

Relative Humidity

51.71 %

Wind Direction

SouthEast (130º, Ranging from 050º to 200º)

Wind Velocity

13 km/h (07 kt)

Gusts

None

Visibility

No Significant Reductions

Sea Level Pressure

1014 hPa (Hectopascals)

Layers of Clouds

None

METAR LEMH 191300Z 13007KT 050V200 CAVOK 29/18 Q1014

Weather Forecast

LEMH | Menorca Airport (Mahón Airport)

Menorca, Balearic Islands, Spain

Forecast valid for the next 20 Hours

From now on it is expected:

Sky with Few Clouds

Light to Moderate Winds from SouthEast

From now on it is expected 5 hours with intermittent periods of:

Thunderstorm with Rain

In 5 hours it is expected the begining of 6 hours with intermittent periods of:

Thunderstorm with Rain

Maximum Temperature

32 ºC in -1 Hours

Minimum Temperature

20 ºC in 17 Hours

TAF LEMH 191145Z 1911/2009 13008KT 9999 FEW020 TX32/1912Z TN20/2006Z PROB30 TEMPO 1911/1918 4000 TSRA FEW070CB PROB40 TEMPO 1918/1924 4000 TSRA FEW070CB